Time;durP1;ratioP1;P1;durP2;ratioP2;P2;SDS_P1;SDS_P2;PMS_P1;PMS_P2;Temp;Humidity;BMP_temperature;BMP_pressure;BME280_temperature;BME280_humidity;BME280_pressure;Samples;Min_cycle;Max_cycle;Signal;HPM_P1;HPM_P2
2022/11/15 00:01:40;;;;;;;58.90;23.77;;;;;;;10.96;71.23;100861.28;4975285;28;20030;-47
2022/11/15 00:04:06;;;;;;;58.58;23.45;;;;;;;11.09;70.69;100853.59;4992219;28;20026;-44
2022/11/15 00:06:32;;;;;;;62.50;24.52;;;;;;;11.19;70.22;100856.28;4991042;28;20031;-46
2022/11/15 00:08:58;;;;;;;58.40;22.70;;;;;;;11.13;70.84;100848.41;4990803;28;20026;-44
2022/11/15 00:11:24;;;;;;;61.22;24.00;;;;;;;11.10;71.19;100840.53;4990835;28;20037;-45
2022/11/15 00:13:49;;;;;;;59.47;24.02;;;;;;;10.98;71.50;100851.72;4991074;28;20018;-44
2022/11/15 00:16:14;;;;;;;58.38;23.13;;;;;;;11.14;70.85;100849.28;4990933;28;20390;-44
2022/11/15 00:18:40;;;;;;;58.67;23.80;;;;;;;11.29;70.55;100845.09;4991536;28;20066;-48
2022/11/15 00:21:09;;;;;;;59.30;22.50;;;;;;;11.23;70.87;100849.38;4991308;28;20219;-43
2022/11/15 00:23:34;;;;;;;62.42;22.80;;;;;;;10.99;72.08;100849.97;4991939;28;20084;-46
2022/11/15 00:26:00;;;;;;;62.38;23.42;;;;;;;11.24;71.20;100852.00;4991026;28;20403;-44
2022/11/15 00:28:26;;;;;;;58.28;23.60;;;;;;;11.05;71.84;100844.81;4991131;28;20043;-43
2022/11/15 00:30:51;;;;;;;65.57;24.65;;;;;;;10.71;72.77;100843.56;4991613;28;20082;-44
2022/11/15 00:33:17;;;;;;;60.38;25.25;;;;;;;10.74;72.85;100847.94;4991791;28;20061;-43
2022/11/15 00:35:42;;;;;;;68.25;24.65;;;;;;;10.79;72.19;100841.06;4991705;28;20022;-42
2022/11/15 00:38:07;;;;;;;64.47;24.25;;;;;;;10.86;71.96;100841.13;4992328;28;20029;-44
2022/11/15 00:40:33;;;;;;;60.90;24.90;;;;;;;10.93;72.09;100836.88;4993170;28;20048;-47
2022/11/15 00:42:58;;;;;;;68.03;25.48;;;;;;;11.08;71.52;100825.72;4992059;28;20026;-43
2022/11/15 00:45:24;;;;;;;61.65;23.67;;;;;;;11.21;71.23;100822.41;4992047;28;20113;-50
2022/11/15 00:47:50;;;;;;;64.60;24.35;;;;;;;11.25;71.36;100821.56;4991456;28;20033;-43
2022/11/15 00:50:16;;;;;;;64.40;24.73;;;;;;;11.15;71.39;100822.34;4991505;28;20116;-43
2022/11/15 00:52:42;;;;;;;60.75;23.92;;;;;;;11.35;71.22;100826.88;4991143;28;20036;-43
2022/11/15 00:55:13;;;;;;;64.95;24.38;;;;;;;11.51;70.66;100821.81;4991310;28;20026;-44
2022/11/15 00:57:38;;;;;;;64.43;24.83;;;;;;;11.34;71.46;100826.88;4992120;28;20530;-43
2022/11/15 01:00:04;;;;;;;66.70;24.40;;;;;;;11.46;70.90;100826.13;4991600;28;20106;-42
2022/11/15 01:02:30;;;;;;;67.28;24.63;;;;;;;11.51;71.02;100819.19;4990910;28;20030;-45
2022/11/15 01:04:55;;;;;;;69.40;25.10;;;;;;;11.63;70.63;100822.78;4990291;28;20399;-45
2022/11/15 01:07:21;;;;;;;69.25;25.35;;;;;;;11.55;71.12;100811.38;4992324;28;20034;-46
2022/11/15 01:09:46;;;;;;;70.78;25.25;;;;;;;11.67;70.51;100816.72;4994253;28;20030;-44
2022/11/15 01:12:11;;;;;;;63.97;23.52;;;;;;;11.68;70.70;100813.25;4993868;28;20025;-43
2022/11/15 01:14:37;;;;;;;70.57;25.27;;;;;;;11.74;70.65;100807.22;4993959;28;20026;-42
2022/11/15 01:17:02;;;;;;;68.80;24.42;;;;;;;11.62;70.95;100809.72;4993742;28;20035;-43
2022/11/15 01:19:27;;;;;;;70.20;24.40;;;;;;;11.57;71.59;100795.75;4994144;28;20406;-49
2022/11/15 01:21:52;;;;;;;63.92;24.50;;;;;;;11.70;71.35;100801.09;4993831;28;20033;-44
2022/11/15 01:24:18;;;;;;;71.68;24.55;;;;;;;11.78;70.86;100799.41;4995581;28;20101;-46
2022/11/15 01:26:43;;;;;;;70.95;23.95;;;;;;;11.78;71.05;100794.19;4996020;28;20403;-43
2022/11/15 01:29:08;;;;;;;70.68;23.77;;;;;;;11.93;70.48;100797.78;4994408;28;20018;-44
2022/11/15 01:31:34;;;;;;;73.13;24.48;;;;;;;11.84;71.24;100784.66;4993479;28;20447;-44
2022/11/15 01:33:59;;;;;;;67.22;24.40;;;;;;;11.82;71.26;100784.66;4993700;28;20033;-44
2022/11/15 01:36:24;;;;;;;77.72;25.25;;;;;;;11.68;71.76;100776.69;4993548;28;20041;-45
2022/11/15 01:38:55;;;;;;;72.93;25.73;;;;;;;11.89;71.34;100777.75;4993306;28;20113;-42
2022/11/15 01:41:26;;;;;;;74.57;24.27;;;;;;;11.96;71.19;100779.50;4991863;28;20279;-42
2022/11/15 01:43:55;;;;;;;71.78;25.23;;;;;;;11.92;71.13;100783.84;4993268;28;20408;-42
2022/11/15 01:46:26;;;;;;;78.88;25.55;;;;;;;11.67;72.36;100776.66;4993208;28;20035;-44
2022/11/15 01:48:54;;;;;;;66.45;24.08;;;;;;;11.98;71.61;100776.03;4993187;28;20026;-46
2022/11/15 01:51:22;;;;;;;74.95;25.83;;;;;;;11.87;71.85;100772.50;4993138;28;20566;-45
2022/11/15 01:53:53;;;;;;;78.38;24.15;;;;;;;12.04;71.37;100769.97;4993289;28;20072;-44
2022/11/15 01:56:25;;;;;;;72.03;24.98;;;;;;;12.06;71.43;100763.03;4993060;28;20482;-42
2022/11/15 01:58:52;;;;;;;73.80;24.83;;;;;;;12.24;70.95;100770.97;4993634;28;20403;-44
2022/11/15 02:01:17;;;;;;;75.60;25.90;;;;;;;12.04;71.87;100762.13;4992572;28;20538;-44
2022/11/15 02:04:24;;;;;;;73.07;25.63;;;;;;;12.25;70.90;100751.81;4992748;28;20113;-45
2022/11/15 02:06:50;;;;;;;73.70;25.77;;;;;;;11.96;72.05;100756.88;4992284;28;20427;-43
2022/11/15 02:09:16;;;;;;;76.63;26.08;;;;;;;12.17;71.53;100753.50;4992931;28;20068;-43
2022/11/15 02:11:44;;;;;;;71.68;24.90;;;;;;;12.18;71.64;100740.44;4992471;28;20030;-42
2022/11/15 02:14:11;;;;;;;73.82;25.73;;;;;;;12.28;71.48;100740.47;4992791;28;20010;-42
2022/11/15 02:16:45;;;;;;;74.80;26.40;;;;;;;12.32;71.53;100742.25;4992545;28;20502;-47
2022/11/15 02:19:32;;;;;;;76.75;26.80;;;;;;;12.38;71.52;100737.06;4991669;28;20038;-49
2022/11/15 02:22:10;;;;;;;78.45;26.20;;;;;;;12.35;71.58;100732.69;4992302;28;20112;-43
2022/11/15 02:24:54;;;;;;;80.00;26.30;;;;;;;12.40;71.71;100727.44;4992366;28;20030;-43
2022/11/15 02:27:23;;;;;;;;;;;;;;;12.54;71.34;100725.78;4992589;28;20490;-41
2022/11/15 02:30:12;;;;;;;69.68;25.27;;;;;;;12.40;71.31;100722.22;4992376;28;20378;-45
2022/11/15 02:32:44;;;;;;;77.95;25.90;;;;;;;12.60;71.22;100720.56;4992320;28;20030;-44
2022/11/15 02:35:18;;;;;;;70.75;25.23;;;;;;;12.63;71.26;100710.09;4992433;28;20073;-44
2022/11/15 02:37:59;;;;;;;71.10;25.50;;;;;;;12.60;71.57;100710.09;4993289;28;20049;-43
2022/11/15 02:40:44;;;;;;;72.85;25.42;;;;;;;12.66;71.53;100701.38;4992577;28;20030;-44
2022/11/15 02:49:28;;;;;;;70.55;24.20;;;;;;;12.72;71.75;100702.28;4976510;28;20049;-43
2022/11/15 02:51:55;;;;;;;71.43;25.13;;;;;;;12.83;71.39;100710.13;4990782;28;20026;-43
2022/11/15 02:54:23;;;;;;;71.25;25.33;;;;;;;12.87;71.46;100711.88;4991904;28;20023;-43
2022/11/15 02:56:51;;;;;;;70.75;23.77;;;;;;;12.91;71.34;100697.94;4992049;28;20030;-47
2022/11/15 02:59:23;;;;;;;70.78;24.73;;;;;;;12.98;71.14;100707.56;4991963;28;20045;-49
2022/11/15 03:02:18;;;;;;;77.90;25.38;;;;;;;12.92;71.33;100707.53;4991733;28;20034;-44
2022/11/15 03:05:17;;;;;;;75.85;24.50;;;;;;;12.94;71.51;100700.53;4992090;28;20027;-50
2022/11/15 03:07:54;;;;;;;71.47;25.08;;;;;;;12.98;71.31;100703.19;4938127;28;20125;-42
2022/11/15 03:10:31;;;;;;;62.28;23.42;;;;;;;13.00;71.31;100705.78;4991405;28;20093;-45
2022/11/15 03:13:03;;;;;;;70.75;24.75;;;;;;;13.00;71.62;100690.09;4992094;28;20053;-41
2022/11/15 03:15:34;;;;;;;63.38;25.05;;;;;;;13.08;71.61;100698.81;4991697;28;20019;-44
2022/11/15 03:18:15;;;;;;;62.63;23.60;;;;;;;13.16;71.44;100699.75;4991692;28;20557;-43
2022/11/15 03:20:43;;;;;;;63.28;23.85;;;;;;;13.15;71.85;100703.22;4991150;28;20449;-46
2022/11/15 03:23:10;;;;;;;66.28;24.70;;;;;;;13.03;72.71;100703.19;4991563;28;20127;-45
2022/11/15 03:25:40;;;;;;;58.80;23.23;;;;;;;13.22;72.19;100698.88;4994718;28;20034;-42
2022/11/15 03:28:09;;;;;;;57.45;23.00;;;;;;;13.24;72.13;100700.59;5020314;22;20046;-44
2022/11/15 03:30:38;;;;;;;61.10;23.35;;;;;;;13.29;72.65;100690.16;5010136;28;20029;-45
2022/11/15 03:33:04;;;;;;;64.43;24.33;;;;;;;13.32;72.69;100690.13;5010851;28;20080;-45
2022/11/15 03:35:40;;;;;;;55.42;22.27;;;;;;;13.41;72.44;100687.50;5011041;28;20061;-44
2022/11/15 03:38:23;;;;;;;54.15;21.83;;;;;;;13.46;72.38;100685.75;5009764;28;20037;-44
2022/11/15 03:40:58;;;;;;;57.72;22.00;;;;;;;13.47;72.25;100684.88;5011330;28;20033;-45
2022/11/15 03:43:48;;;;;;;52.78;21.10;;;;;;;13.51;72.67;100685.75;5011279;28;20057;-43
2022/11/15 03:46:19;;;;;;;46.67;20.10;;;;;;;13.61;72.20;100676.97;5011608;28;20035;-43
2022/11/15 03:48:52;;;;;;;52.33;21.38;;;;;;;13.61;72.29;100690.94;5011195;28;20390;-45
2022/11/15 03:51:18;;;;;;;49.67;20.55;;;;;;;13.63;72.44;100696.19;5012719;28;20021;-43
2022/11/15 03:53:44;;;;;;;49.17;20.85;;;;;;;13.67;72.45;100687.44;5015220;28;20405;-43
2022/11/15 03:56:09;;;;;;;48.58;19.92;;;;;;;13.73;72.61;100692.66;5031201;28;20041;-48
2022/11/15 03:58:34;;;;;;;47.22;20.23;;;;;;;13.76;72.33;100687.44;5024091;28;20509;-44
2022/11/15 04:01:00;;;;;;;46.90;20.63;;;;;;;13.66;72.93;100689.19;5009914;28;20036;-44
2022/11/15 04:03:25;;;;;;;46.95;19.55;;;;;;;13.76;72.86;100683.06;5010318;28;20040;-45
2022/11/15 04:05:50;;;;;;;42.00;18.65;;;;;;;13.84;72.57;100690.06;5010749;28;20113;-45
2022/11/15 04:08:16;;;;;;;46.55;19.58;;;;;;;13.81;72.92;100680.44;5011296;28;20266;-43
2022/11/15 04:10:41;;;;;;;44.67;19.33;;;;;;;13.84;72.95;100682.19;5010509;28;20036;-44
2022/11/15 04:13:06;;;;;;;45.42;18.98;;;;;;;13.81;72.70;100680.44;5010316;28;20453;-45
2022/11/15 04:15:32;;;;;;;42.47;18.98;;;;;;;13.87;72.87;100677.78;5009902;28;20022;-45
2022/11/15 04:17:58;;;;;;;37.20;18.55;;;;;;;13.92;72.64;100675.16;5009921;28;20056;-42
2022/11/15 04:26:03;;;;;;;34.58;16.92;;;;;;;14.01;72.57;100676.00;5010131;28;20043;-46
2022/11/15 04:28:28;;;;;;;32.58;16.17;;;;;;;14.04;72.79;100669.88;5009668;28;20044;-42
2022/11/15 04:30:54;;;;;;;35.63;16.30;;;;;;;13.96;73.00;100669.03;5009534;28;20029;-43
2022/11/15 04:33:19;;;;;;;31.95;15.15;;;;;;;14.06;72.90;100660.25;5010004;28;20038;-44
2022/11/15 04:37:11;;;;;;;36.17;15.00;;;;;;;14.09;72.56;100663.72;5009908;28;20026;-44
2022/11/15 04:38:30;;;;;;;31.08;13.57;;;;;;;14.20;72.78;100659.31;5009471;28;20038;-43
2022/11/15 04:40:55;;;;;;;31.17;14.15;;;;;;;14.15;72.52;100653.22;5009523;28;20022;-43
2022/11/15 04:43:21;;;;;;;26.20;13.82;;;;;;;14.18;72.50;100660.19;5013381;28;20467;-43
2022/11/15 04:45:46;;;;;;;25.48;13.00;;;;;;;14.21;72.22;100663.66;5013646;28;20045;-44
2022/11/15 04:48:12;;;;;;;27.30;13.50;;;;;;;14.12;72.76;100668.09;5013588;28;20365;-44
2022/11/15 04:50:37;;;;;;;28.05;13.07;;;;;;;14.17;72.48;100669.81;5013414;28;20065;-44
2022/11/15 04:53:02;;;;;;;27.10;12.98;;;;;;;14.15;72.79;100675.94;5013646;28;20022;-44
2022/11/15 04:55:27;;;;;;;26.73;12.07;;;;;;;14.19;72.64;100667.19;5013419;28;20029;-46
2022/11/15 04:58:01;;;;;;;24.98;11.90;;;;;;;14.20;72.64;100671.56;5013908;28;20029;-44
2022/11/15 05:00:28;;;;;;;27.83;11.80;;;;;;;14.07;72.88;100678.59;5013001;28;20025;-44
2022/11/15 05:05:37;;;;;;;29.25;11.73;;;;;;;14.14;72.79;100680.34;5013692;28;20048;-44
2022/11/15 05:08:04;;;;;;;26.33;11.80;;;;;;;14.23;72.71;100692.50;5013214;28;20108;-44
2022/11/15 05:10:29;;;;;;;28.77;12.27;;;;;;;14.13;73.22;100688.19;5013010;28;20026;-43
2022/11/15 05:12:54;;;;;;;26.60;11.73;;;;;;;14.08;73.52;100692.59;5013037;28;20021;-43
2022/11/15 05:15:20;;;;;;;25.23;11.80;;;;;;;14.17;73.52;100696.03;5013169;28;20470;-46
2022/11/15 05:17:45;;;;;;;26.35;12.35;;;;;;;14.10;73.33;100690.81;5013337;28;20080;-40
2022/11/15 05:20:11;;;;;;;23.42;11.40;;;;;;;14.28;72.88;100682.88;5013182;28;20026;-45
2022/11/15 05:22:36;;;;;;;20.00;11.32;;;;;;;14.15;73.08;100683.78;5012950;28;20035;-43
2022/11/15 05:25:02;;;;;;;22.67;10.35;;;;;;;14.29;72.60;100682.00;5013362;28;20022;-44
2022/11/15 05:27:27;;;;;;;21.33;10.32;;;;;;;14.32;72.44;100681.13;5012909;28;20099;-44
2022/11/15 05:29:52;;;;;;;23.58;10.85;;;;;;;14.33;72.11;100691.59;5012980;28;20029;-43
2022/11/15 05:32:18;;;;;;;23.00;11.38;;;;;;;14.25;72.38;100692.50;5012759;28;20032;-43
2022/11/15 05:34:43;;;;;;;22.85;10.88;;;;;;;14.14;72.81;100689.94;5013280;28;20053;-43
2022/11/15 05:37:09;;;;;;;24.17;11.10;;;;;;;14.05;72.90;100689.97;5013093;28;20025;-44
2022/11/15 05:39:35;;;;;;;19.33;10.43;;;;;;;14.18;72.91;100692.53;5014117;28;20026;-41
2022/11/15 05:42:06;;;;;;;22.05;10.45;;;;;;;14.07;72.93;100689.09;5015062;28;20033;-44
2022/11/15 05:44:32;;;;;;;25.00;11.20;;;;;;;14.05;72.62;100695.19;5014308;28;20105;-45
2022/11/15 05:46:58;;;;;;;24.15;10.80;;;;;;;14.09;72.47;100689.06;5013416;28;20113;-42
2022/11/15 05:49:34;;;;;;;22.83;10.90;;;;;;;13.93;72.97;100692.63;5013063;28;20121;-43
2022/11/15 05:51:59;;;;;;;18.85;10.48;;;;;;;13.96;73.15;100700.50;5012498;28;20022;-43
2022/11/15 05:54:25;;;;;;;24.23;10.65;;;;;;;14.03;72.48;100689.97;5013084;28;20029;-47
2022/11/15 05:56:51;;;;;;;21.67;10.57;;;;;;;14.04;72.51;100686.47;5012840;28;20029;-44
2022/11/15 05:59:18;;;;;;;19.75;10.55;;;;;;;14.04;72.50;100693.44;5013130;28;20402;-44
2022/11/15 06:01:43;;;;;;;22.42;10.65;;;;;;;14.04;72.42;100702.19;5012654;28;20022;-42
2022/11/15 06:04:08;;;;;;;20.65;10.23;;;;;;;14.09;72.51;100704.78;5012614;28;20493;-44
2022/11/15 06:06:34;;;;;;;20.35;10.65;;;;;;;13.93;72.69;100713.59;5013123;28;20044;-43
2022/11/15 06:08:59;;;;;;;18.02;10.25;;;;;;;14.11;71.81;100716.16;5012893;28;20025;-43
2022/11/15 06:11:24;;;;;;;21.55;10.63;;;;;;;13.81;72.91;100717.13;5012470;28;20028;-43
2022/11/15 06:13:49;;;;;;;17.42;9.90;;;;;;;13.97;71.88;100712.69;5012397;28;20040;-45
2022/11/15 06:16:15;;;;;;;21.40;10.02;;;;;;;14.02;71.44;100709.22;5013178;28;20442;-44
2022/11/15 06:18:40;;;;;;;24.75;10.40;;;;;;;13.87;71.77;100703.13;5012886;28;20061;-46
2022/11/15 06:21:06;;;;;;;19.85;9.40;;;;;;;13.90;72.03;100718.84;5012318;28;20112;-44
2022/11/15 06:23:32;;;;;;;20.15;9.68;;;;;;;13.86;71.49;100717.97;5012434;28;20022;-44
2022/11/15 06:25:59;;;;;;;18.35;9.18;;;;;;;13.62;71.80;100718.91;5012578;28;20025;-43
2022/11/15 06:28:25;;;;;;;17.98;8.93;;;;;;;13.73;71.67;100711.88;5011547;28;20578;-43
2022/11/15 06:30:50;;;;;;;19.00;9.13;;;;;;;13.69;71.52;100704.91;5012270;28;20109;-44
2022/11/15 06:33:15;;;;;;;16.50;8.20;;;;;;;13.66;71.40;100715.38;5012646;28;20022;-43
2022/11/15 06:35:41;;;;;;;18.23;8.13;;;;;;;13.66;71.18;100717.16;5013341;28;20104;-43
2022/11/15 06:38:08;;;;;;;18.77;8.27;;;;;;;13.54;71.22;100717.19;5014269;28;20030;-46
2022/11/15 06:40:35;;;;;;;15.98;7.25;;;;;;;13.28;72.34;100711.97;5013312;28;20025;-45
2022/11/15 06:43:01;;;;;;;18.38;7.20;;;;;;;13.42;71.47;100715.41;5013058;28;20162;-44
2022/11/15 06:45:27;;;;;;;13.90;6.82;;;;;;;13.36;71.89;100726.78;5015258;28;20121;-44
2022/11/15 06:47:52;;;;;;;11.93;6.72;;;;;;;13.34;71.80;100733.78;5016217;28;20443;-43
2022/11/15 06:50:18;;;;;;;17.40;6.78;;;;;;;13.40;71.17;100736.41;5016949;28;20094;-42
2022/11/15 06:52:43;;;;;;;14.90;6.68;;;;;;;13.34;70.91;100740.75;5017750;28;20037;-43
2022/11/15 06:55:09;;;;;;;15.00;6.45;;;;;;;13.35;70.75;100740.75;5018083;28;20021;-45
2022/11/15 06:57:35;;;;;;;12.10;6.32;;;;;;;13.34;70.81;100741.63;5011929;28;20401;-44
2022/11/15 07:00:01;;;;;;;14.60;6.40;;;;;;;13.24;71.34;100741.59;5011043;28;20087;-44
2022/11/15 07:02:26;;;;;;;15.38;6.50;;;;;;;13.30;71.45;100739.88;5010827;28;20033;-43
2022/11/15 07:04:51;;;;;;;15.38;6.22;;;;;;;13.33;71.64;100739.00;5010752;28;20109;-44
2022/11/15 07:07:16;;;;;;;17.58;6.15;;;;;;;13.31;71.64;100733.75;5010872;28;20091;-46
2022/11/15 07:09:42;;;;;;;13.48;6.25;;;;;;;13.31;71.72;100736.38;5011128;28;20029;-45
2022/11/15 07:12:07;;;;;;;12.98;6.38;;;;;;;13.37;71.68;100725.03;5010508;28;20022;-45
2022/11/15 07:14:32;;;;;;;16.60;6.15;;;;;;;13.36;72.01;100732.00;5010959;28;20025;-44
2022/11/15 07:16:58;;;;;;;16.70;6.50;;;;;;;13.32;72.03;100734.63;5010756;28;20109;-46
2022/11/15 07:19:23;;;;;;;17.90;7.05;;;;;;;13.29;72.04;100734.66;5009489;28;20124;-48
2022/11/15 07:21:48;;;;;;;14.75;6.10;;;;;;;13.52;72.17;100734.63;5010686;28;20032;-43
2022/11/15 07:24:13;;;;;;;16.58;6.18;;;;;;;13.49;71.64;100732.00;5010883;28;20127;-47
2022/11/15 07:26:39;;;;;;;12.85;6.20;;;;;;;13.51;71.78;100745.97;5011651;28;20029;-44
2022/11/15 07:29:04;;;;;;;15.38;5.97;;;;;;;13.59;71.63;100736.38;5013038;28;20014;-45
2022/11/15 07:31:29;;;;;;;13.48;5.55;;;;;;;13.73;71.10;100731.97;5012140;28;20088;-44
2022/11/15 07:33:55;;;;;;;12.73;5.50;;;;;;;13.78;70.99;100725.84;5011404;28;20100;-44
2022/11/15 07:36:20;;;;;;;10.55;5.60;;;;;;;13.56;71.93;100728.50;5010355;28;20104;-45
2022/11/15 07:38:45;;;;;;;11.77;5.72;;;;;;;13.68;71.48;100734.59;5010431;28;20044;-43
2022/11/15 07:41:11;;;;;;;13.63;5.75;;;;;;;13.58;70.93;100732.88;5010287;28;20021;-45
2022/11/15 07:43:36;;;;;;;12.48;5.85;;;;;;;13.75;70.63;100727.63;5010403;28;20529;-46
2022/11/15 07:46:09;;;;;;;12.02;5.40;;;;;;;13.82;70.46;100727.59;5010535;28;20401;-46
2022/11/15 07:48:35;;;;;;;11.88;5.10;;;;;;;13.65;70.39;100724.16;5010270;28;20026;-44
2022/11/15 07:51:01;;;;;;;10.50;4.93;;;;;;;13.75;70.01;100722.38;5010087;28;20050;-45
2022/11/15 07:53:26;;;;;;;12.73;4.82;;;;;;;13.57;70.07;100719.78;5010532;28;20105;-44
2022/11/15 07:55:53;;;;;;;12.77;4.72;;;;;;;13.72;69.58;100711.91;5010697;28;20029;-46
2022/11/15 07:58:19;;;;;;;10.98;4.90;;;;;;;13.60;69.24;100715.41;5010143;28;20776;-43
2022/11/15 08:00:44;;;;;;;9.65;4.72;;;;;;;13.59;69.47;100705.81;5009946;28;20026;-45
2022/11/15 08:03:12;;;;;;;9.45;4.60;;;;;;;13.48;69.59;100699.69;5010418;28;20034;-46
2022/11/15 08:05:39;;;;;;;11.77;4.75;;;;;;;13.48;69.42;100706.72;5010135;28;20483;-46
2022/11/15 08:08:05;;;;;;;13.05;4.82;;;;;;;13.61;69.54;100704.06;5010249;28;20453;-45
2022/11/15 08:10:31;;;;;;;8.75;4.75;;;;;;;13.67;69.69;100690.06;5009616;28;20478;-45
2022/11/15 08:13:06;;;;;;;12.38;4.45;;;;;;;13.66;69.71;100696.22;5009888;28;20053;-43
2022/11/15 08:15:32;;;;;;;11.00;4.63;;;;;;;13.82;69.90;100696.16;5009631;28;20104;-45
2022/11/15 08:18:01;;;;;;;10.57;4.78;;;;;;;13.98;69.71;100698.72;5009356;28;20158;-46
2022/11/15 08:20:31;;;;;;;10.10;4.65;;;;;;;14.16;69.03;100699.53;5009641;28;20034;-46
2022/11/15 08:23:01;;;;;;;10.15;4.38;;;;;;;14.12;69.17;100689.06;5010077;28;20163;-44
2022/11/15 08:25:28;;;;;;;8.82;4.38;;;;;;;14.14;68.77;100684.69;5009917;28;20239;-45
2022/11/15 08:27:58;;;;;;;12.20;4.47;;;;;;;14.28;67.61;100688.09;5009810;28;20053;-45
2022/11/15 08:30:25;;;;;;;10.05;4.40;;;;;;;14.41;67.73;100681.09;5009630;28;20106;-44
2022/11/15 08:32:51;;;;;;;14.30;4.82;;;;;;;14.43;67.43;100672.34;5009675;28;20033;-45
2022/11/15 08:35:18;;;;;;;9.82;4.63;;;;;;;14.40;67.27;100669.72;5009828;28;20040;-46
2022/11/15 08:37:43;;;;;;;8.45;4.90;;;;;;;14.52;66.79;100663.53;5009757;28;20026;-43
2022/11/15 08:40:09;;;;;;;8.95;5.15;;;;;;;14.49;66.69;100674.06;5009933;28;20041;-43
2022/11/15 08:42:35;;;;;;;11.70;5.57;;;;;;;14.60;66.94;100672.25;5009704;28;20025;-44
2022/11/15 08:45:00;;;;;;;9.55;5.53;;;;;;;14.68;66.24;100665.19;5009619;28;20045;-46
2022/11/15 08:47:26;;;;;;;11.70;5.57;;;;;;;14.56;66.36;100666.16;5009764;28;20022;-46
2022/11/15 08:49:52;;;;;;;12.68;5.38;;;;;;;14.65;65.93;100673.06;5009953;28;20080;-44
2022/11/15 08:52:17;;;;;;;11.85;5.65;;;;;;;14.59;66.06;100666.13;5009467;28;20064;-43
2022/11/15 08:54:42;;;;;;;13.23;6.28;;;;;;;14.57;66.19;100662.66;5009789;28;20022;-44
2022/11/15 08:57:09;;;;;;;12.50;5.70;;;;;;;14.51;66.31;100670.56;5009723;28;20065;-43
2022/11/15 08:59:35;;;;;;;11.82;6.22;;;;;;;14.54;66.27;100665.28;5010057;28;20030;-45
2022/11/15 09:02:00;;;;;;;12.57;6.32;;;;;;;14.56;66.03;100660.03;5009556;28;20104;-45
2022/11/15 09:04:26;;;;;;;10.25;5.90;;;;;;;14.57;66.14;100665.28;5009601;28;20455;-46
2022/11/15 09:06:51;;;;;;;14.38;6.32;;;;;;;14.57;65.84;100669.66;5009605;28;20030;-44
2022/11/15 09:09:16;;;;;;;10.77;5.72;;;;;;;14.61;65.67;100673.97;5009878;28;20504;-44
2022/11/15 09:11:42;;;;;;;12.68;5.63;;;;;;;14.44;66.28;100676.72;5009497;28;20040;-46
2022/11/15 09:14:07;;;;;;;13.85;5.57;;;;;;;14.54;66.11;100669.66;5009748;28;20505;-43
2022/11/15 09:16:32;;;;;;;9.98;5.28;;;;;;;14.71;65.11;100665.16;5009541;28;20077;-43
2022/11/15 09:18:58;;;;;;;9.43;5.10;;;;;;;14.37;65.31;100675.00;5009938;28;20069;-43
2022/11/15 09:21:23;;;;;;;10.00;5.25;;;;;;;14.21;66.17;100671.53;5009991;28;20094;-44
2022/11/15 09:23:52;;;;;;;14.70;5.50;;;;;;;14.27;66.23;100664.53;5011243;28;20085;-44
2022/11/15 09:26:17;;;;;;;10.35;5.30;;;;;;;14.51;65.37;100662.69;5012085;28;20026;-44
2022/11/15 09:28:43;;;;;;;13.32;5.15;;;;;;;14.48;65.16;100665.31;5027952;23;20107;-40
2022/11/15 09:31:09;;;;;;;9.57;5.63;;;;;;;14.39;65.65;100660.13;5013731;28;20188;-42
2022/11/15 09:33:34;;;;;;;8.52;5.55;;;;;;;14.13;66.04;100669.84;5011340;28;20037;-41
2022/11/15 09:36:05;;;;;;;9.95;4.90;;;;;;;14.43;65.20;100669.72;5014385;28;20029;-40
2022/11/15 09:38:31;;;;;;;9.50;4.85;;;;;;;14.63;64.62;100674.84;5014862;28;20026;-39
2022/11/15 09:41:14;;;;;;;10.27;5.15;;;;;;;14.64;64.36;100666.06;5015042;28;20030;-43
2022/11/15 09:44:03;;;;;;;7.65;4.78;;;;;;;14.52;64.43;100666.16;5015080;28;20437;-42
2022/11/15 09:46:55;;;;;;;6.93;4.50;;;;;;;14.47;64.60;100663.56;5004827;28;20026;-40
2022/11/15 09:49:21;;;;;;;9.82;5.30;;;;;;;14.57;64.45;100654.78;5000654;28;20083;-41
2022/11/15 09:51:50;;;;;;;7.30;4.53;;;;;;;14.70;63.83;100646.81;5013982;28;20014;-40
2022/11/15 09:54:34;;;;;;;7.47;4.28;;;;;;;14.45;64.10;100646.13;4996184;28;20375;-40
2022/11/15 09:57:14;;;;;;;12.05;4.50;;;;;;;14.67;63.82;100634.59;5005741;28;20429;-41
2022/11/15 09:59:49;;;;;;;10.00;4.13;;;;;;;14.50;64.14;100633.84;5009375;28;20052;-44
2022/11/15 10:02:39;;;;;;;9.38;4.40;;;;;;;14.61;63.69;100634.63;4995137;28;20037;-42
2022/11/15 10:05:09;;;;;;;8.65;4.25;;;;;;;14.81;62.96;100618.75;4976947;28;20076;-41
2022/11/15 10:07:57;;;;;;;8.75;4.20;;;;;;;14.78;63.14;100609.13;5000121;28;20030;-41
2022/11/15 10:11:09;;;;;;;6.88;3.75;;;;;;;14.77;62.62;100617.00;5008731;28;20026;-41
2022/11/15 10:13:40;;;;;;;9.63;3.92;;;;;;;14.99;62.25;100623.84;4919569;29;20065;-40
2022/11/15 10:16:26;;;;;;;8.88;3.53;;;;;;;14.96;62.39;100613.34;4935493;29;20031;-42
2022/11/15 10:19:00;;;;;;;7.70;3.63;;;;;;;14.81;62.60;100617.00;4963556;28;20403;-40
2022/11/15 10:21:57;;;;;;;7.57;3.60;;;;;;;14.76;62.81;100621.38;4997154;28;20060;-40
2022/11/15 10:24:30;;;;;;;10.05;3.80;;;;;;;14.87;62.31;100608.19;5006817;28;20034;-41
2022/11/15 10:26:56;;;;;;;6.10;3.05;;;;;;;15.01;61.71;100611.56;4991888;28;20399;-42
2022/11/15 10:29:22;;;;;;;6.25;3.10;;;;;;;15.08;61.38;100604.50;4993959;28;20454;-44
2022/11/15 10:31:48;;;;;;;7.93;3.20;;;;;;;15.11;61.50;100600.09;4993724;28;20030;-40
2022/11/15 10:34:18;;;;;;;8.02;3.10;;;;;;;15.19;60.54;100586.88;4993777;28;20026;-41
2022/11/15 10:36:54;;;;;;;9.35;3.25;;;;;;;15.22;61.09;100578.97;4994360;28;20407;-40
2022/11/15 10:39:20;;;;;;;6.43;3.00;;;;;;;15.12;60.60;100575.59;5005313;28;20030;-40
2022/11/15 10:41:46;;;;;;;8.90;3.22;;;;;;;15.01;60.89;100569.56;5008124;28;20532;-41
2022/11/15 10:44:20;;;;;;;7.85;3.13;;;;;;;15.24;60.48;100561.47;4992474;28;20465;-40
2022/11/15 10:47:03;;;;;;;;;;;;;;;15.33;60.11;100564.84;4993746;28;20026;-43
2022/11/15 10:49:32;;;;;;;6.13;3.20;;;;;;;15.17;60.80;100565.03;5004132;28;19913;-42
2022/11/15 10:52:14;;;;;;;8.02;3.25;;;;;;;15.26;60.07;100555.28;5010304;28;20057;-41
2022/11/15 10:54:53;;;;;;;6.97;3.08;;;;;;;15.56;59.51;100556.72;4994245;28;20041;-40
2022/11/15 10:57:22;;;;;;;7.38;3.10;;;;;;;15.09;60.71;100565.09;5011842;28;20026;-40
2022/11/15 11:00:00;;;;;;;6.57;3.20;;;;;;;15.51;59.44;100565.53;5013249;28;20030;-41
2022/11/15 11:02:28;;;;;;;10.98;3.60;;;;;;;15.37;59.78;100558.66;5010539;28;20034;-43
2022/11/15 11:04:54;;;;;;;8.88;3.50;;;;;;;15.25;59.71;100552.69;4993444;28;20034;-41
2022/11/15 11:07:22;;;;;;;8.75;3.35;;;;;;;15.56;59.42;100558.47;4993124;28;20070;-43
2022/11/15 11:09:57;;;;;;;7.00;3.05;;;;;;;15.38;59.48;100549.91;4998201;28;20419;-41
2022/11/15 11:12:27;;;;;;;;;;;;;;;15.48;58.90;100542.81;5012966;28;20037;-43
2022/11/15 11:14:52;;;;;;;5.90;3.10;;;;;;;15.48;58.73;100539.31;4993900;28;19920;-42
2022/11/15 11:17:30;;;;;;;6.82;2.70;;;;;;;15.24;58.85;100536.06;4990279;28;20350;-42
2022/11/15 11:20:07;;;;;;;7.15;2.92;;;;;;;15.54;58.82;100528.75;4992016;28;21600;-41
2022/11/15 11:22:48;;;;;;;6.50;2.78;;;;;;;15.55;58.28;100512.97;4991915;28;20427;-44
2022/11/15 11:25:34;;;;;;;9.35;2.90;;;;;;;15.74;58.08;100514.44;4991992;28;20033;-41
2022/11/15 11:28:05;;;;;;;8.25;2.75;;;;;;;15.89;57.54;100496.75;5002379;28;20045;-41
2022/11/15 11:30:45;;;;;;;8.13;2.72;;;;;;;15.70;58.02;100498.75;5007771;28;20030;-40
2022/11/15 11:33:23;;;;;;;8.68;2.83;;;;;;;15.81;57.41;100502.97;4991617;28;20030;-40
2022/11/15 11:36:16;;;;;;;4.03;2.33;;;;;;;16.12;56.60;100495.50;4991306;28;20483;-42
2022/11/15 11:38:50;;;;;;;12.02;2.50;;;;;;;16.20;56.54;100492.75;5004292;28;20038;-41